Time;durP1;ratioP1;P1;durP2;ratioP2;P2;SDS_P1;SDS_P2;PMS_P1;PMS_P2;Temp;Humidity;BMP_temperature;BMP_pressure;BME280_temperature;BME280_humidity;BME280_pressure;Samples;Min_cycle;Max_cycle;Signal;HPM_P1;HPM_P2
2022/02/09 00:01:44;;;;;;;0.60;0.40;;;;;;;9.53;81.95;100432.47;4867944;29;20242;-76
2022/02/09 00:09:11;;;;;;;0.53;0.50;;;;;;;9.63;80.97;100439.13;4884439;29;20192;-77
2022/02/09 00:11:44;;;;;;;0.70;0.40;;;;;;;9.57;81.63;100437.22;4884210;29;20207;-77
2022/02/09 00:14:33;;;;;;;1.53;0.40;;;;;;;9.67;80.40;100448.44;4867952;29;20208;-75
2022/02/09 00:33:24;;;;;;;0.87;0.60;;;;;;;9.51;82.11;100471.97;4870306;29;20186;-74
2022/02/09 00:41:32;;;;;;;0.60;0.50;;;;;;;9.43;82.70;100472.91;4883138;29;20303;-75
2022/02/09 01:11:15;;;;;;;0.50;0.40;;;;;;;9.79;79.31;100483.53;4869185;29;20534;-76
2022/02/09 01:11:39;;;;;;;0.53;0.40;;;;;;;9.83;78.95;100487.47;4883304;29;20587;-75
2022/02/09 01:57:15;;;;;;;0.97;0.40;;;;;;;9.98;76.92;100465.97;4882718;29;20185;-75
2022/02/09 01:59:43;;;;;;;0.60;0.50;;;;;;;9.84;77.59;100478.44;4897092;29;20226;-74
2022/02/09 02:02:09;;;;;;;0.77;0.60;;;;;;;9.85;77.10;100488.09;4882669;29;20198;-77
2022/02/09 02:04:39;;;;;;;1.17;0.60;;;;;;;9.96;76.45;100487.56;4882018;29;20184;-74
2022/02/09 02:07:15;;;;;;;0.87;0.60;;;;;;;10.01;75.97;100476.28;4896751;29;20195;-74
2022/02/09 02:09:42;;;;;;;1.53;0.60;;;;;;;9.89;76.65;100467.13;4866374;29;20176;-76
2022/02/09 02:12:17;;;;;;;0.60;0.50;;;;;;;9.83;77.35;100478.63;4882404;29;20653;-76
2022/02/09 02:14:50;;;;;;;0.70;0.60;;;;;;;9.88;76.73;100455.59;4882803;29;20233;-75
2022/02/09 02:17:25;;;;;;;0.90;0.47;;;;;;;9.93;76.44;100487.13;4882581;29;20183;-75
2022/02/09 02:19:58;;;;;;;1.73;0.50;;;;;;;9.84;77.00;100472.25;4882257;29;20260;-76
2022/02/09 02:22:39;;;;;;;0.53;0.50;;;;;;;9.82;76.86;100466.25;4866311;29;20194;-77
2022/02/09 02:26:06;;;;;;;1.87;0.90;;;;;;;9.83;77.04;100475.94;4882265;29;20187;-74
2022/02/09 02:30:59;;;;;;;1.63;0.70;;;;;;;9.89;76.68;100475.16;4882374;29;20182;-76
2022/02/09 02:36:21;;;;;;;1.40;0.60;;;;;;;9.84;76.32;100478.44;4896918;29;20218;-75
2022/02/09 02:39:13;;;;;;;1.07;0.90;;;;;;;9.89;76.41;100483.19;4889166;29;20217;-76
2022/02/09 02:58:54;;;;;;;0.40;0.40;;;;;;;9.91;75.94;100457.03;4918516;29;20186;-76
2022/02/09 03:12:20;;;;;;;1.43;0.50;;;;;;;10.00;75.23;100472.75;4881162;29;20195;-75
2022/02/09 03:17:36;;;;;;;0.83;0.50;;;;;;;10.03;75.48;100452.81;4923365;29;20201;-75
2022/02/09 03:20:21;;;;;;;1.67;0.60;;;;;;;10.04;75.46;100462.47;4922549;29;20202;-78
2022/02/09 03:55:24;;;;;;;1.70;0.80;;;;;;;9.78;77.04;100479.19;4921770;29;20249;-75
2022/02/09 03:57:51;;;;;;;1.30;0.60;;;;;;;9.83;77.13;100492.00;4922025;29;20179;-75
2022/02/09 04:00:20;;;;;;;1.60;0.70;;;;;;;9.75;77.02;100466.22;4920680;29;20212;-77
2022/02/09 04:02:48;;;;;;;0.87;0.50;;;;;;;9.69;78.28;100483.03;4922239;29;20198;-79
2022/02/09 04:05:17;;;;;;;1.73;0.60;;;;;;;9.62;78.45;100493.66;4905263;29;20201;-75
2022/02/09 04:07:44;;;;;;;1.40;0.40;;;;;;;9.71;77.64;100487.16;4921826;29;20182;-76
2022/02/09 04:10:17;;;;;;;1.07;0.63;;;;;;;9.59;78.22;100485.19;4921604;29;20627;-75
2022/02/09 04:40:13;;;;;;;1.30;0.60;;;;;;;9.14;80.39;100484.56;4920963;29;20484;-76
2022/02/09 04:50:28;;;;;;;0.63;0.63;;;;;;;9.01;80.90;100499.63;4921024;29;20558;-75
2022/02/09 04:53:17;;;;;;;1.30;0.50;;;;;;;9.11;80.44;100494.81;4904183;29;20194;-77
2022/02/09 04:55:56;;;;;;;0.50;0.50;;;;;;;9.01;80.69;100507.63;4904226;29;20230;-77
2022/02/09 05:25:02;;;;;;;0.70;0.57;;;;;;;8.70;82.92;100510.56;4903542;29;20191;-77
2022/02/09 05:27:47;;;;;;;0.77;0.60;;;;;;;8.71;83.46;100521.06;4919553;29;20193;-75
2022/02/09 05:30:14;;;;;;;1.80;0.50;;;;;;;8.80;82.76;100525.28;4920159;29;20182;-77
2022/02/09 05:32:41;;;;;;;1.53;0.73;;;;;;;8.67;84.00;100521.63;4887839;29;20507;-78
2022/02/09 05:35:08;;;;;;;1.50;0.70;;;;;;;8.72;83.45;100530.75;4919890;29;20187;-77
2022/02/09 05:37:35;;;;;;;0.70;0.60;;;;;;;8.59;84.44;100535.06;4919231;29;20188;-78
2022/02/09 05:40:02;;;;;;;1.73;0.70;;;;;;;8.52;85.11;100526.13;4918193;29;20202;-79
2022/02/09 05:42:31;;;;;;;1.43;0.60;;;;;;;8.51;85.29;100533.31;4903439;29;20221;-77
2022/02/09 05:45:04;;;;;;;1.13;0.80;;;;;;;8.54;85.69;100529.47;4919889;29;20195;-78
2022/02/09 05:50:28;;;;;;;1.10;0.60;;;;;;;8.48;85.73;100530.19;4919269;29;20178;-76
2022/02/09 05:58:08;;;;;;;0.80;0.60;;;;;;;8.42;86.56;100520.25;4886834;29;20203;-76
2022/02/09 06:00:35;;;;;;;0.50;0.50;;;;;;;8.34;87.01;100510.50;4898957;29;20230;-75
2022/02/09 06:03:02;;;;;;;0.60;0.50;;;;;;;8.52;85.21;100524.28;4900037;29;20217;-78
2022/02/09 06:05:31;;;;;;;0.87;0.60;;;;;;;8.33;86.86;100519.50;4915299;29;20486;-75
2022/02/09 06:07:58;;;;;;;1.23;0.60;;;;;;;8.38;87.09;100517.13;4900884;29;20579;-76
2022/02/09 06:10:30;;;;;;;2.60;0.50;;;;;;;8.33;86.86;100514.16;4884342;29;20198;-76
2022/02/09 06:21:13;;;;;;;1.10;0.50;;;;;;;8.37;87.20;100510.09;4886534;29;20191;-76
2022/02/09 06:23:40;;;;;;;1.13;0.70;;;;;;;8.48;86.53;100508.81;4900731;29;20202;-78
2022/02/09 06:26:07;;;;;;;1.90;1.10;;;;;;;8.50;85.78;100518.31;4900215;29;20191;-78
2022/02/09 06:28:33;;;;;;;3.53;0.63;;;;;;;8.58;85.95;100518.22;4900729;29;20188;-78
2022/02/09 06:31:00;;;;;;;0.90;0.47;;;;;;;8.50;86.02;100515.63;4899348;29;20189;-78
2022/02/09 06:33:27;;;;;;;1.60;0.63;;;;;;;8.50;85.87;100520.97;4883966;29;20209;-76
2022/02/09 06:35:56;;;;;;;1.53;0.70;;;;;;;8.49;86.54;100527.31;4900255;29;20198;-76
2022/02/09 06:38:23;;;;;;;1.27;0.80;;;;;;;8.59;85.71;100519.84;4900653;29;20187;-76
2022/02/09 06:40:54;;;;;;;1.17;0.50;;;;;;;8.54;85.96;100522.25;4900238;29;20533;-77
2022/02/09 06:43:21;;;;;;;0.73;0.50;;;;;;;8.59;85.93;100530.53;4884813;29;20183;-75
2022/02/09 06:45:48;;;;;;;1.47;0.50;;;;;;;8.74;84.96;100531.38;4900336;29;20202;-77
2022/02/09 06:48:18;;;;;;;1.23;0.50;;;;;;;8.76;84.56;100534.69;4900362;29;20238;-76
2022/02/09 06:50:53;;;;;;;0.80;0.60;;;;;;;8.77;84.69;100532.84;4915711;29;20227;-77
2022/02/09 06:55:56;;;;;;;1.20;0.60;;;;;;;8.90;83.74;100537.53;4904160;29;20249;-77
2022/02/09 07:01:06;;;;;;;1.90;0.70;;;;;;;8.87;84.60;100540.56;4888786;29;20606;-74
2022/02/09 07:03:34;;;;;;;1.77;0.60;;;;;;;8.93;84.26;100550.50;4887788;29;20183;-76
2022/02/09 07:06:02;;;;;;;2.67;0.80;;;;;;;9.03;83.11;100551.88;4918008;29;20203;-75
2022/02/09 07:08:29;;;;;;;1.10;0.67;;;;;;;9.03;82.96;100551.88;4917415;29;20243;-76
2022/02/09 07:10:56;;;;;;;1.70;0.80;;;;;;;9.16;82.38;100548.53;4871378;29;20195;-76
2022/02/09 07:13:22;;;;;;;0.67;0.50;;;;;;;9.20;82.28;100550.63;4903896;29;20197;-74
2022/02/09 07:15:53;;;;;;;1.37;0.77;;;;;;;9.23;82.51;100552.13;4871764;29;20203;-76
2022/02/09 07:18:20;;;;;;;0.73;0.47;;;;;;;9.50;80.11;100561.25;4888196;29;20175;-74
2022/02/09 07:26:17;;;;;;;1.27;0.50;;;;;;;9.69;79.08;100571.34;4879078;29;20203;-77
2022/02/09 07:28:44;;;;;;;1.07;0.60;;;;;;;9.72;79.40;100565.59;4888479;29;20210;-76
2022/02/09 07:31:12;;;;;;;1.97;0.90;;;;;;;9.70;78.95;100565.78;4903437;29;20183;-77
2022/02/09 07:33:41;;;;;;;1.60;0.70;;;;;;;9.88;77.56;100565.34;4887231;29;20229;-73
2022/02/09 07:36:09;;;;;;;1.50;0.83;;;;;;;9.87;77.62;100579.75;4902234;29;20628;-79
2022/02/09 07:38:36;;;;;;;3.10;2.10;;;;;;;9.89;78.01;100579.56;4918236;29;20485;-75
2022/02/09 07:41:03;;;;;;;0.80;0.70;;;;;;;9.90;77.54;100573.16;4903243;29;20607;-74
2022/02/09 07:43:49;;;;;;;1.13;0.80;;;;;;;9.99;76.76;100582.72;4903290;29;20235;-77
2022/02/09 07:46:31;;;;;;;1.30;0.60;;;;;;;9.94;77.07;100572.59;4915543;29;20190;-76
2022/02/09 07:49:09;;;;;;;1.37;0.80;;;;;;;10.09;76.96;100577.84;4916462;29;20258;-76
2022/02/09 07:51:53;;;;;;;1.57;0.83;;;;;;;10.11;76.80;100576.66;4888604;29;20197;-79
2022/02/09 07:54:22;;;;;;;2.33;0.60;;;;;;;10.24;75.26;100573.28;4904226;29;20183;-75
2022/02/09 07:56:49;;;;;;;1.57;0.80;;;;;;;10.33;74.66;100569.44;4902458;29;20201;-74
2022/02/09 07:59:16;;;;;;;2.30;0.70;;;;;;;10.37;75.09;100576.06;4903020;29;20195;-75
2022/02/09 08:01:44;;;;;;;2.10;0.60;;;;;;;10.32;75.35;100572.31;4917028;29;20195;-78
2022/02/09 08:04:11;;;;;;;1.10;0.70;;;;;;;10.46;73.91;100564.16;4901528;29;20191;-75
2022/02/09 08:06:38;;;;;;;1.50;0.73;;;;;;;10.47;74.33;100563.16;4902820;29;20302;-79
2022/02/09 08:09:11;;;;;;;1.23;0.70;;;;;;;10.62;72.78;100555.00;4886330;29;20211;-74
2022/02/09 08:11:51;;;;;;;0.50;0.50;;;;;;;10.54;73.36;100565.88;4916646;29;20178;-77
2022/02/09 08:30:47;;;;;;;2.60;0.90;;;;;;;10.98;69.57;100560.13;4886923;29;20175;-77
2022/02/09 08:33:19;;;;;;;1.43;0.80;;;;;;;10.88;71.03;100573.06;4885904;29;20198;-78
2022/02/09 08:35:47;;;;;;;2.40;0.70;;;;;;;10.99;69.77;100564.47;4901727;29;20175;-77
2022/02/09 08:38:14;;;;;;;1.47;0.77;;;;;;;11.04;69.02;100559.34;4906265;29;20541;-74
2022/02/09 08:40:42;;;;;;;1.87;0.80;;;;;;;11.11;68.63;100554.81;4888966;29;20221;-74
2022/02/09 08:43:10;;;;;;;1.73;0.70;;;;;;;11.22;68.24;100564.13;4904434;29;20208;-73
2022/02/09 08:45:38;;;;;;;2.20;0.70;;;;;;;11.17;67.23;100564.75;4921313;29;20190;-79
2022/02/09 08:48:06;;;;;;;1.53;0.70;;;;;;;11.14;67.03;100559.78;4903833;29;20230;-76
2022/02/09 08:50:33;;;;;;;1.63;0.60;;;;;;;11.29;67.23;100560.44;4919808;29;20242;-75
2022/02/09 08:53:00;;;;;;;1.30;0.60;;;;;;;11.43;66.19;100554.09;4904525;29;20212;-77
2022/02/09 08:55:27;;;;;;;1.33;0.77;;;;;;;11.39;65.97;100547.47;4920888;29;20190;-73
2022/02/09 08:57:54;;;;;;;4.33;0.77;;;;;;;11.40;65.47;100543.75;4920789;29;20201;-73
2022/02/09 09:00:27;;;;;;;1.03;0.70;;;;;;;11.53;65.59;100548.31;4904040;29;20207;-73
2022/02/09 09:03:19;;;;;;;1.40;0.80;;;;;;;11.51;64.75;100555.78;4904123;29;20206;-75
2022/02/09 09:58:01;;;;;;;1.20;0.67;;;;;;;11.99;62.74;100532.28;4896684;29;20227;-74
2022/02/09 09:58:29;;;;;;;2.90;1.20;;;;;;;12.33;60.54;100521.31;4910423;29;20189;-76
2022/02/09 10:01:20;;;;;;;1.23;0.60;;;;;;;12.45;59.27;100523.38;4911279;29;20245;-77
2022/02/09 10:32:26;;;;;;;2.80;1.00;;;;;;;13.03;56.42;100484.69;4833107;29;20557;-81
2022/02/09 10:34:46;;;;;;;4.13;3.10;;;;;;;13.09;55.72;100478.44;4881652;29;20195;-76
2022/02/09 10:37:27;;;;;;;0.90;0.77;;;;;;;13.18;55.28;100468.28;4868983;29;20192;-80
2022/02/09 10:40:02;;;;;;;1.83;1.13;;;;;;;13.37;53.82;100480.78;4905452;29;20506;-78
2022/02/09 10:42:46;;;;;;;2.40;1.40;;;;;;;13.50;54.07;100478.00;4901265;29;20235;-80
2022/02/09 10:45:33;;;;;;;1.40;1.20;;;;;;;13.42;52.57;100480.16;4901062;29;20190;-78
2022/02/09 10:48:30;;;;;;;2.33;1.23;;;;;;;13.50;53.30;100472.63;4905442;29;20298;-79
2022/02/09 10:54:26;;;;;;;1.37;0.60;;;;;;;13.70;53.00;100464.41;4872250;29;20200;-78
2022/02/09 10:56:56;;;;;;;1.30;0.80;;;;;;;13.72;52.06;100461.50;4888195;29;20257;-82
2022/02/09 10:59:25;;;;;;;0.93;0.70;;;;;;;13.71;51.59;100462.53;4895947;29;20204;-82
2022/02/09 11:01:53;;;;;;;1.60;0.80;;;;;;;13.76;50.87;100458.16;4864622;29;20214;-81
2022/02/09 11:04:20;;;;;;;1.37;0.90;;;;;;;13.74;52.04;100457.53;4868062;29;20211;-79
2022/02/09 11:06:48;;;;;;;2.50;1.27;;;;;;;13.85;53.51;100461.38;4883032;29;20273;-77
2022/02/09 11:09:27;;;;;;;0.90;0.70;;;;;;;13.91;52.80;100466.69;4870755;29;20235;-84
2022/02/09 11:11:55;;;;;;;1.00;0.57;;;;;;;13.97;52.38;100459.59;4882948;29;20552;-83
2022/02/09 11:14:24;;;;;;;1.20;0.77;;;;;;;14.05;51.23;100448.53;4899019;29;20520;-83
2022/02/09 11:16:56;;;;;;;1.13;0.90;;;;;;;14.11;50.68;100453.03;4898831;29;20196;-82
2022/02/09 11:19:36;;;;;;;1.53;1.00;;;;;;;14.15;51.90;100451.53;4883315;29;20204;-78
2022/02/09 11:22:11;;;;;;;2.40;0.80;;;;;;;14.28;51.66;100447.88;4898512;29;20204;-81
2022/02/09 11:24:48;;;;;;;1.37;0.80;;;;;;;14.36;51.96;100439.53;4883242;29;20196;-86
2022/02/09 11:27:30;;;;;;;1.90;1.30;;;;;;;14.59;51.69;100449.66;4900098;29;20195;-82
2022/02/09 11:30:12;;;;;;;2.17;1.30;;;;;;;14.69;50.78;100444.56;4898676;29;20185;-80
2022/02/09 11:33:08;;;;;;;1.03;0.80;;;;;;;14.78;50.55;100429.69;4883219;29;20268;-82
2022/02/09 11:35:40;;;;;;;1.40;1.00;;;;;;;14.91;48.51;100432.22;4899474;29;20184;-77
2022/02/09 11:38:16;;;;;;;1.23;0.90;;;;;;;14.94;48.37;100429.06;4899154;29;20189;-80
2022/02/09 12:11:42;;;;;;;2.20;0.80;;;;;;;15.19;47.43;100404.63;4882984;29;20219;-80
2022/02/09 12:19:33;;;;;;;2.83;0.73;;;;;;;15.02;47.63;100396.38;4902470;29;20625;-80
2022/02/09 12:22:13;;;;;;;1.53;0.70;;;;;;;15.18;46.61;100400.28;4899876;29;20605;-81
2022/02/09 12:24:41;;;;;;;1.67;0.80;;;;;;;15.20;46.82;100392.78;4902286;29;20462;-81
2022/02/09 12:27:10;;;;;;;1.17;0.80;;;;;;;15.28;46.19;100387.88;4869551;29;20735;-84
2022/02/09 12:29:43;;;;;;;2.90;0.93;;;;;;;15.44;46.90;100381.75;4900693;29;20197;-83
2022/02/09 12:32:14;;;;;;;1.80;1.00;;;;;;;15.37;46.29;100372.97;4884930;29;20400;-82
2022/02/09 12:35:08;;;;;;;1.67;0.90;;;;;;;15.42;45.97;100372.28;4902101;29;20700;-82
2022/02/09 12:37:38;;;;;;;2.13;0.80;;;;;;;15.48;46.46;100373.22;4885326;29;20203;-80
2022/02/09 12:40:07;;;;;;;2.20;0.90;;;;;;;15.49;45.80;100361.38;4881734;29;20202;-80
2022/02/09 12:42:45;;;;;;;1.27;0.83;;;;;;;15.44;46.14;100360.16;4897329;29;20634;-80
2022/02/09 12:45:24;;;;;;;1.13;0.70;;;;;;;15.50;46.38;100363.00;4897621;29;20222;-83
2022/02/09 12:47:54;;;;;;;1.37;0.87;;;;;;;15.47;45.96;100358.06;4883670;29;20238;-77
2022/02/09 12:50:23;;;;;;;2.17;0.70;;;;;;;15.53;45.65;100349.91;4915894;29;20186;-81
2022/02/09 12:52:51;;;;;;;1.27;0.70;;;;;;;15.55;46.16;100353.16;4901318;29;20277;-80
2022/02/09 12:55:20;;;;;;;2.10;0.93;;;;;;;15.60;46.28;100349.75;4896070;29;20195;-76
2022/02/09 12:57:52;;;;;;;1.77;0.90;;;;;;;15.67;46.91;100348.59;4866736;29;20201;-84
2022/02/09 13:00:23;;;;;;;1.50;0.80;;;;;;;15.65;46.10;100349.88;4897132;29;20193;-78
2022/02/09 13:02:51;;;;;;;1.10;1.00;;;;;;;15.77;44.83;100342.63;4882551;29;20596;-82
2022/02/09 13:05:18;;;;;;;1.87;0.90;;;;;;;15.68;45.77;100344.00;4888119;29;20237;-77
2022/02/09 13:08:11;;;;;;;2.43;0.90;;;;;;;15.64;45.59;100340.13;4881986;29;20210;-84
2022/02/09 13:10:39;;;;;;;1.87;0.90;;;;;;;15.58;45.34;100322.19;4866527;29;20243;-77
2022/02/09 13:13:12;;;;;;;1.47;0.80;;;;;;;15.58;45.05;100328.41;4866637;29;20198;-80
2022/02/09 13:18:33;;;;;;;3.13;1.07;;;;;;;15.65;45.55;100331.78;4867731;29;20191;-78
2022/02/09 14:58:52;;;;;;;2.60;1.10;;;;;;;14.31;48.96;100326.16;4853235;29;20279;-77
2022/02/09 15:01:28;;;;;;;1.73;1.00;;;;;;;14.24;50.46;100341.56;4844666;29;20619;-79
2022/02/09 15:04:27;;;;;;;1.00;0.87;;;;;;;14.20;50.90;100332.28;4869349;29;20207;-77
2022/02/09 15:12:33;;;;;;;0.83;0.70;;;;;;;13.67;52.58;100331.00;4901773;29;20184;-80
2022/02/09 15:15:12;;;;;;;1.83;1.10;;;;;;;13.56;53.88;100339.84;4887312;29;20180;-81
2022/02/09 15:20:50;;;;;;;2.03;0.90;;;;;;;13.36;54.78;100328.41;4902589;29;20189;-84
2022/02/09 15:23:16;;;;;;;1.67;1.57;;;;;;;13.25;55.59;100331.03;4899201;29;20220;-83
2022/02/09 15:25:43;;;;;;;2.90;0.80;;;;;;;13.24;54.23;100332.88;4890677;29;20196;-82
2022/02/09 15:28:11;;;;;;;1.70;1.10;;;;;;;13.17;54.63;100321.34;4899094;29;20529;-80
2022/02/09 15:31:00;;;;;;;1.87;1.77;;;;;;;12.95;56.83;100318.16;4917394;29;20634;-85
2022/02/09 15:33:38;;;;;;;1.37;0.80;;;;;;;13.00;56.48;100323.72;4886316;29;20185;-83
2022/02/09 15:36:42;;;;;;;2.07;1.13;;;;;;;12.84;57.52;100328.78;4903419;29;20209;-78
2022/02/09 15:39:09;;;;;;;3.53;1.30;;;;;;;12.50;58.55;100325.50;4899770;29;20199;-79
2022/02/09 15:41:54;;;;;;;2.40;1.03;;;;;;;12.40;60.78;100325.16;4902188;29;20564;-86
2022/02/09 16:09:22;;;;;;;0.97;0.80;;;;;;;11.02;62.68;100312.81;4903125;29;20549;-79
2022/02/09 16:17:41;;;;;;;4.73;3.30;;;;;;;10.68;65.67;100318.38;4910917;29;20217;-78
2022/02/09 16:23:11;;;;;;;11.03;6.53;;;;;;;10.40;68.09;100320.38;4901299;29;20203;-76
2022/02/09 16:44:54;;;;;;;8.03;5.03;;;;;;;9.45;75.17;100322.94;4938318;29;20178;-77
2022/02/09 16:50:24;;;;;;;6.67;5.10;;;;;;;9.25;77.36;100338.84;4951112;29;20260;-77
2022/02/09 16:52:59;;;;;;;5.13;4.23;;;;;;;9.17;76.96;100336.31;4935510;29;20178;-77
2022/02/09 16:56:20;;;;;;;5.03;3.57;;;;;;;8.92;78.67;100340.41;4949663;29;20292;-76
2022/02/09 17:20:36;;;;;;;5.57;3.60;;;;;;;7.96;88.77;100394.94;4925902;29;20612;-77
2022/02/09 17:23:04;;;;;;;8.40;3.47;;;;;;;7.84;89.14;100386.53;4940026;29;20197;-77
2022/02/09 17:25:31;;;;;;;5.70;3.10;;;;;;;7.78;89.52;100400.63;4939516;29;20237;-79
2022/02/09 17:27:58;;;;;;;4.37;2.00;;;;;;;7.66;90.30;100393.25;4926782;29;20193;-76
2022/02/09 17:30:50;;;;;;;5.03;3.00;;;;;;;7.61;91.62;100387.63;4916763;29;20191;-78
2022/02/09 17:33:17;;;;;;;6.13;4.30;;;;;;;7.64;91.17;100388.13;4921311;29;20209;-77
2022/02/09 17:36:02;;;;;;;4.70;3.03;;;;;;;7.52;91.66;100392.22;4928058;29;20233;-75
2022/02/09 17:38:38;;;;;;;3.83;3.23;;;;;;;7.35;93.26;100386.22;4936508;29;20221;-75
2022/02/09 17:57:41;;;;;;;51.50;29.97;;;;;;;6.80;100.00;100401.63;4921278;29;20470;-78
2022/02/09 18:02:38;;;;;;;31.30;17.97;;;;;;;6.62;100.00;100400.06;4937936;29;20205;-77
2022/02/09 18:05:13;;;;;;;21.77;15.10;;;;;;;6.59;100.00;100396.94;4923075;29;20197;-80
2022/02/09 18:07:41;;;;;;;15.27;12.23;;;;;;;6.51;100.00;100392.50;4924512;29;20181;-79
2022/02/09 18:10:21;;;;;;;19.07;12.60;;;;;;;6.52;100.00;100401.31;4908293;29;20198;-82
2022/02/09 18:32:26;;;;;;;4.50;4.10;;;;;;;6.33;100.00;100397.25;4909192;29;20221;-76
2022/02/09 18:48:07;;;;;;;5.20;2.20;;;;;;;6.31;100.00;100383.25;4941544;29;20225;-76
2022/02/09 19:04:13;;;;;;;4.50;2.07;;;;;;;5.99;100.00;100386.06;4928997;29;20202;-77
2022/02/09 19:20:42;;;;;;;6.17;5.00;;;;;;;5.61;100.00;100390.28;4928978;29;20186;-78
2022/02/09 19:26:20;;;;;;;9.50;6.17;;;;;;;5.48;100.00;100385.50;4923678;29;20535;-76
2022/02/09 19:31:36;;;;;;;8.20;5.47;;;;;;;5.35;100.00;100389.66;4908466;29;20186;-78
2022/02/09 19:48:21;;;;;;;11.17;7.30;;;;;;;4.81;100.00;100403.41;4923623;29;20194;-76
2022/02/09 19:57:57;;;;;;;8.27;5.80;;;;;;;4.50;100.00;100402.38;4923096;29;20279;-81
2022/02/09 20:00:26;;;;;;;6.43;4.87;;;;;;;4.51;100.00;100403.19;4907063;29;20622;-78
2022/02/09 20:02:53;;;;;;;7.23;5.53;;;;;;;4.47;100.00;100407.16;4907526;29;20203;-79
2022/02/09 20:05:22;;;;;;;8.00;5.83;;;;;;;4.45;100.00;100404.66;4923725;29;20242;-76
2022/02/09 20:07:48;;;;;;;9.40;6.43;;;;;;;4.36;100.00;100411.78;4923624;29;20190;-79
2022/02/09 20:10:15;;;;;;;10.43;6.17;;;;;;;4.29;100.00;100400.13;4923525;29;20190;-78
2022/02/09 20:12:42;;;;;;;9.20;7.30;;;;;;;4.28;100.00;100414.41;4891181;29;20591;-81
2022/02/09 20:15:11;;;;;;;9.87;7.20;;;;;;;4.28;100.00;100406.44;4923451;29;20187;-80
2022/02/09 20:17:40;;;;;;;9.93;7.67;;;;;;;4.10;100.00;100399.59;4923229;29;20194;-79
2022/02/09 20:20:10;;;;;;;11.17;7.50;;;;;;;4.06;100.00;100398.25;4923580;29;20479;-78
2022/02/09 20:22:37;;;;;;;11.63;8.33;;;;;;;4.00;100.00;100399.69;4907166;29;20206;-81
2022/02/09 20:25:08;;;;;;;10.97;8.40;;;;;;;3.93;100.00;100402.13;4891686;29;20226;-76
2022/02/09 20:27:37;;;;;;;11.23;8.83;;;;;;;3.93;100.00;100407.44;4930931;29;20185;-80
2022/02/09 20:30:08;;;;;;;10.47;8.00;;;;;;;3.91;100.00;100409.44;4939364;29;20205;-80
2022/02/09 20:32:41;;;;;;;9.87;8.00;;;;;;;3.85;100.00;100409.22;4943148;29;20206;-80
2022/02/09 20:35:11;;;;;;;10.93;8.97;;;;;;;3.79;100.00;100413.34;4938842;29;20190;-78
2022/02/09 20:37:43;;;;;;;10.97;9.23;;;;;;;3.74;100.00;100405.00;4935544;29;20304;-77
2022/02/09 20:40:23;;;;;;;17.77;13.83;;;;;;;3.69;100.00;100402.00;4947472;29;20178;-80
2022/02/09 20:42:56;;;;;;;27.80;17.27;;;;;;;3.70;100.00;100408.97;4927996;29;20598;-83
2022/02/09 20:48:00;;;;;;;146.17;68.90;;;;;;;3.60;100.00;100408.25;4923395;29;20596;-81
2022/02/09 20:50:31;;;;;;;147.33;69.97;;;;;;;3.58;100.00;100407.59;4917960;29;20224;-79
2022/02/09 20:52:58;;;;;;;107.03;51.83;;;;;;;3.50;100.00;100402.22;4945301;29;20193;-78
2022/02/09 20:55:27;;;;;;;84.27;41.03;;;;;;;3.44;100.00;100416.94;4927184;29;20194;-77
2022/02/09 20:57:54;;;;;;;66.53;34.57;;;;;;;3.37;100.00;100401.78;4941358;29;20189;-77
2022/02/09 21:03:20;;;;;;;32.93;20.23;;;;;;;3.30;100.00;100408.72;4944431;29;20204;-79
2022/02/09 21:11:13;;;;;;;8.87;7.23;;;;;;;3.09;100.00;100411.66;4947355;29;20582;-78
2022/02/09 21:24:23;;;;;;;8.07;6.17;;;;;;;2.97;100.00;100404.97;4942556;29;20233;-79
2022/02/09 21:57:16;;;;;;;7.37;5.20;;;;;;;2.49;100.00;100413.25;4897452;29;20234;-80
2022/02/09 22:00:38;;;;;;;6.33;5.07;;;;;;;2.42;100.00;100409.53;4944843;29;20174;-79
2022/02/09 22:29:14;;;;;;;5.90;5.07;;;;;;;1.86;100.00;100399.94;4944358;29;20185;-81
2022/02/09 22:50:39;;;;;;;7.23;5.37;;;;;;;1.39;100.00;100393.81;4927485;29;20544;-79
2022/02/09 22:55:52;;;;;;;6.53;4.80;;;;;;;1.33;100.00;100397.03;4929485;29;20911;-78
2022/02/09 22:58:22;;;;;;;7.27;5.30;;;;;;;1.30;100.00;100395.50;4943200;29;20182;-82
2022/02/09 23:01:00;;;;;;;9.20;5.87;;;;;;;1.26;100.00;100396.75;4924757;29;20226;-79
2022/02/09 23:13:46;;;;;;;7.53;6.37;;;;;;;1.13;100.00;100398.00;4942448;29;20277;-79
2022/02/09 23:54:45;;;;;;;11.23;7.27;;;;;;;0.33;100.00;100367.44;4932268;29;20213;-78
